createdAt,value
2023-11-22T00:01:12.571Z,19.17
2023-11-22T00:03:41.596Z,19.63
2023-11-22T00:06:11.589Z,20.87
2023-11-22T00:08:40.269Z,22.23
2023-11-22T00:11:08.782Z,24.87
2023-11-22T00:13:37.146Z,23.17
2023-11-22T00:16:06.379Z,22.87
2023-11-22T00:18:35.408Z,23.73
2023-11-22T00:21:04.213Z,25.27
2023-11-22T00:23:35.059Z,24.00
2023-11-22T00:26:03.805Z,23.73
2023-11-22T00:28:32.064Z,27.43
2023-11-22T00:31:00.880Z,26.83
2023-11-22T00:33:30.723Z,22.07
2023-11-22T00:35:59.699Z,23.27
2023-11-22T00:38:28.275Z,25.57
2023-11-22T00:40:58.283Z,18.67
2023-11-22T00:43:27.362Z,26.50
2023-11-22T00:45:56.175Z,27.53
2023-11-22T00:48:24.824Z,26.30
2023-11-22T00:50:53.497Z,29.53
2023-11-22T00:53:22.269Z,26.00
2023-11-22T00:55:50.848Z,27.50
2023-11-22T00:58:21.065Z,24.70
2023-11-22T01:00:49.479Z,28.10
2023-11-22T01:03:18.084Z,28.77
2023-11-22T01:05:47.964Z,29.77
2023-11-22T01:08:17.927Z,27.60
2023-11-22T01:10:47.162Z,30.73
2023-11-22T01:13:16.373Z,29.20
2023-11-22T01:15:47.056Z,31.17
2023-11-22T01:18:16.081Z,29.30
2023-11-22T01:20:44.817Z,30.13
2023-11-22T01:23:13.484Z,33.10
2023-11-22T01:25:42.060Z,28.23
2023-11-22T01:28:12.346Z,32.53
2023-11-22T01:30:41.190Z,29.60
2023-11-22T01:33:10.805Z,27.13
2023-11-22T01:35:41.024Z,31.90
2023-11-22T01:38:10.277Z,32.17
2023-11-22T01:40:48.134Z,34.90
2023-11-22T01:43:18.085Z,35.53
2023-11-22T01:45:47.056Z,32.30
2023-11-22T01:48:17.318Z,32.13
2023-11-22T01:50:47.751Z,36.97
2023-11-22T01:53:18.124Z,31.57
2023-11-22T01:55:48.078Z,31.60
2023-11-22T01:58:16.750Z,30.93
2023-11-22T02:00:48.194Z,34.93
2023-11-22T02:03:18.791Z,35.27
2023-11-22T02:05:47.742Z,33.60
2023-11-22T02:08:18.094Z,34.47
2023-11-22T02:10:48.438Z,34.40
2023-11-22T02:13:17.115Z,34.57
2023-11-22T02:15:48.106Z,34.80
2023-11-22T02:18:17.977Z,32.40
2023-11-22T02:20:46.561Z,30.57
2023-11-22T02:23:16.371Z,33.63
2023-11-22T02:25:45.333Z,32.83
2023-11-22T02:28:14.282Z,30.70
2023-11-22T02:30:43.340Z,31.07
2023-11-22T02:33:11.735Z,28.97
2023-11-22T02:35:40.170Z,29.30
2023-11-22T02:38:09.041Z,28.07
2023-11-22T02:40:39.131Z,30.33
2023-11-22T02:43:10.592Z,28.23
2023-11-22T02:45:41.208Z,28.40
2023-11-22T02:48:11.319Z,27.53
2023-11-22T02:50:40.890Z,26.87
2023-11-22T02:53:09.984Z,26.87
2023-11-22T02:55:40.423Z,26.03
2023-11-22T02:58:08.858Z,27.30
2023-11-22T03:00:37.149Z,25.17
2023-11-22T03:03:10.073Z,24.43
2023-11-22T03:05:39.313Z,23.07
2023-11-22T03:08:08.497Z,25.03
2023-11-22T03:10:37.716Z,23.10
2023-11-22T03:13:07.759Z,22.77
2023-11-22T03:15:37.510Z,22.87
2023-11-22T03:18:07.498Z,24.73
2023-11-22T03:20:36.217Z,25.43
2023-11-22T03:23:04.641Z,21.83
2023-11-22T03:25:33.913Z,21.97
2023-11-22T03:28:02.821Z,19.87
2023-11-22T03:30:33.740Z,21.47
2023-11-22T03:33:03.278Z,22.43
2023-11-22T03:35:32.899Z,23.27
2023-11-22T03:38:01.242Z,19.70
2023-11-22T03:40:29.444Z,23.13
2023-11-22T03:42:58.060Z,21.60
2023-11-22T03:45:26.933Z,31.27
2023-11-22T03:47:56.820Z,32.83
2023-11-22T03:50:25.519Z,35.27
2023-11-22T03:52:54.039Z,44.37
2023-11-22T03:55:22.400Z,39.13
2023-11-22T03:57:51.242Z,52.23
2023-11-22T04:00:21.908Z,50.90
2023-11-22T04:02:50.268Z,61.00
2023-11-22T04:05:21.453Z,62.17
2023-11-22T04:07:51.038Z,65.70
2023-11-22T04:10:20.821Z,70.20
2023-11-22T04:12:49.272Z,86.07
2023-11-22T04:15:17.959Z,90.73
2023-11-22T04:17:49.345Z,94.43
2023-11-22T04:20:19.530Z,85.70
2023-11-22T04:22:48.604Z,76.47
2023-11-22T04:25:16.884Z,80.03
2023-11-22T04:27:45.452Z,75.00
2023-11-22T04:30:15.833Z,82.23
2023-11-22T04:32:44.912Z,104.43
2023-11-22T04:35:14.908Z,77.87
2023-11-22T04:37:45.149Z,75.13
2023-11-22T04:40:16.050Z,81.23
2023-11-22T04:42:44.738Z,74.50
2023-11-22T04:45:13.479Z,87.37
2023-11-22T04:47:42.446Z,88.17
2023-11-22T04:50:12.268Z,73.60
2023-11-22T04:52:41.025Z,182.93
2023-11-22T04:55:11.928Z,183.33
2023-11-22T04:57:41.539Z,227.40
2023-11-22T05:00:11.265Z,202.33
2023-11-22T05:02:41.605Z,169.80
2023-11-22T05:05:12.849Z,300.23
2023-11-22T05:07:41.517Z,194.20
2023-11-22T05:10:12.939Z,144.57
2023-11-22T05:12:41.731Z,163.27
2023-11-22T05:15:10.675Z,171.33
2023-11-22T05:17:39.530Z,155.67
2023-11-22T05:20:11.120Z,226.07
2023-11-22T05:22:40.233Z,230.70
2023-11-22T05:25:11.733Z,167.53
2023-11-22T05:27:40.073Z,78.27
2023-11-22T05:30:12.351Z,45.43
2023-11-22T05:32:41.339Z,43.40
2023-11-22T05:35:11.345Z,36.57
2023-11-22T05:37:40.618Z,51.13
2023-11-22T05:40:13.390Z,48.07
2023-11-22T05:42:41.688Z,82.03
2023-11-22T05:45:12.124Z,34.00
2023-11-22T05:47:40.777Z,35.80
2023-11-22T05:50:10.849Z,31.10
2023-11-22T05:52:39.440Z,52.27
2023-11-22T05:55:09.681Z,43.33
2023-11-22T05:57:39.221Z,43.37
2023-11-22T06:00:09.065Z,33.20
2023-11-22T06:02:39.008Z,33.07
2023-11-22T06:05:08.825Z,31.33
2023-11-22T06:07:37.516Z,41.60
2023-11-22T06:10:06.573Z,36.70
2023-11-22T06:12:35.059Z,37.30
2023-11-22T06:15:06.545Z,37.67
2023-11-22T06:17:34.849Z,37.27
2023-11-22T06:20:04.973Z,51.13
2023-11-22T06:22:33.955Z,44.10
2023-11-22T06:25:02.954Z,41.60
2023-11-22T06:27:31.553Z,46.77
2023-11-22T06:29:59.842Z,43.83
2023-11-22T06:32:30.123Z,39.83
2023-11-22T06:34:58.636Z,40.53
2023-11-22T06:37:27.370Z,40.30
2023-11-22T06:39:55.779Z,41.53
2023-11-22T06:42:24.388Z,42.73
2023-11-22T06:44:54.466Z,39.03
2023-11-22T06:47:23.876Z,37.27
2023-11-22T06:49:53.828Z,35.70
2023-11-22T06:52:22.064Z,36.77
2023-11-22T06:54:51.117Z,41.30
2023-11-22T06:57:19.508Z,36.47
2023-11-22T06:59:48.266Z,33.23
2023-11-22T07:02:17.045Z,33.33
2023-11-22T07:04:46.843Z,34.27
2023-11-22T07:07:17.125Z,35.70
2023-11-22T07:09:45.770Z,33.63
2023-11-22T07:12:14.579Z,38.03
2023-11-22T07:14:44.952Z,34.63
2023-11-22T07:17:13.999Z,28.33
2023-11-22T07:19:48.228Z,24.80
2023-11-22T07:22:20.480Z,23.70
2023-11-22T07:24:52.725Z,21.47
2023-11-22T07:27:21.282Z,24.43
2023-11-22T07:29:51.411Z,22.97
2023-11-22T07:32:21.516Z,21.83
2023-11-22T07:34:50.309Z,23.50
2023-11-22T07:37:20.314Z,21.30
2023-11-22T07:39:50.854Z,23.10
2023-11-22T07:42:19.476Z,23.27
2023-11-22T07:44:48.473Z,22.03
2023-11-22T07:47:17.087Z,21.30
2023-11-22T07:49:46.133Z,21.83
2023-11-22T07:52:15.601Z,21.53
2023-11-22T07:54:46.375Z,20.67
2023-11-22T07:57:15.781Z,22.87
2023-11-22T07:59:45.057Z,20.30
2023-11-22T08:02:13.848Z,21.00
2023-11-22T08:04:43.978Z,23.03
2023-11-22T08:07:16.045Z,22.87
2023-11-22T08:09:46.370Z,22.83
2023-11-22T08:12:15.205Z,23.00
2023-11-22T08:14:45.734Z,22.33
2023-11-22T08:17:15.546Z,25.97
2023-11-22T08:19:44.215Z,22.37
2023-11-22T08:22:12.974Z,23.80
2023-11-22T08:24:41.317Z,24.00
2023-11-22T08:27:15.568Z,25.17
2023-11-22T08:29:44.098Z,22.83
2023-11-22T08:32:12.554Z,24.73
2023-11-22T08:34:41.210Z,23.40
2023-11-22T08:37:09.942Z,21.03
2023-11-22T08:39:38.504Z,22.60
2023-11-22T08:42:10.945Z,22.97
2023-11-22T08:44:40.808Z,24.70
2023-11-22T08:47:09.898Z,22.77
2023-11-22T08:49:39.238Z,22.00
2023-11-22T08:52:08.847Z,22.97
2023-11-22T08:54:38.188Z,22.70
2023-11-22T08:57:07.345Z,24.13
2023-11-22T08:59:39.328Z,24.53
2023-11-22T09:02:11.656Z,24.83
2023-11-22T09:04:44.111Z,23.47
2023-11-22T09:07:16.047Z,24.70
2023-11-22T09:09:45.454Z,24.93
2023-11-22T09:12:14.804Z,23.87
2023-11-22T09:14:43.751Z,24.10
2023-11-22T09:17:15.291Z,23.77
2023-11-22T09:19:44.224Z,24.00
2023-11-22T09:22:12.791Z,24.07
2023-11-22T09:24:41.367Z,24.43
2023-11-22T09:27:12.059Z,24.43
2023-11-22T09:29:40.382Z,22.20
2023-11-22T09:32:09.356Z,22.23
2023-11-22T09:34:39.249Z,23.50
2023-11-22T09:37:07.553Z,22.87
2023-11-22T09:39:36.054Z,22.40
2023-11-22T09:42:06.033Z,23.10
2023-11-22T09:44:34.543Z,22.57
2023-11-22T09:47:03.571Z,23.97
2023-11-22T09:49:34.261Z,23.20
2023-11-22T09:52:05.730Z,23.77
2023-11-22T09:54:36.575Z,22.43
2023-11-22T09:57:10.033Z,21.83
2023-11-22T09:59:42.902Z,22.77
2023-11-22T10:02:13.447Z,21.40
2023-11-22T10:04:41.992Z,21.23
2023-11-22T10:07:12.883Z,21.10
2023-11-22T10:09:43.196Z,20.37
2023-11-22T10:12:14.148Z,19.87
2023-11-22T10:14:42.605Z,19.43
2023-11-22T10:17:11.399Z,19.13
2023-11-22T10:19:39.704Z,19.03
2023-11-22T10:22:09.019Z,21.33
2023-11-22T10:24:38.981Z,20.17
2023-11-22T10:27:08.929Z,21.93
2023-11-22T10:29:37.920Z,21.77
2023-11-22T10:32:09.069Z,22.80
2023-11-22T10:34:37.816Z,22.73
2023-11-22T10:37:06.418Z,24.20
2023-11-22T10:39:35.486Z,22.97
2023-11-22T10:42:09.924Z,22.73
2023-11-22T10:44:39.947Z,23.03
2023-11-22T10:47:10.696Z,23.47
2023-11-22T10:49:39.051Z,24.40
2023-11-22T10:52:13.602Z,23.90
2023-11-22T10:54:51.577Z,23.43
2023-11-22T10:57:25.540Z,24.60
2023-11-22T10:59:57.662Z,22.77
2023-11-22T11:02:29.034Z,23.63
2023-11-22T11:05:03.407Z,23.77
2023-11-22T11:07:38.253Z,21.87
2023-11-22T11:10:13.307Z,19.20
2023-11-22T11:12:48.108Z,19.43
2023-11-22T11:15:18.363Z,18.23
2023-11-22T11:17:51.514Z,18.70
2023-11-22T11:20:21.271Z,17.37
2023-11-22T11:22:50.850Z,16.70
2023-11-22T11:25:21.188Z,16.73
2023-11-22T11:28:01.077Z,17.33
2023-11-22T11:30:50.037Z,17.27
2023-11-22T11:33:21.296Z,16.83
2023-11-22T11:35:51.239Z,16.20
2023-11-22T11:38:23.212Z,15.30
2023-11-22T11:40:55.811Z,15.87
2023-11-22T11:43:42.733Z,15.33
2023-11-22T11:46:11.864Z,14.60
2023-11-22T11:48:40.856Z,14.63
2023-11-22T11:51:10.366Z,14.70
2023-11-22T11:53:39.342Z,14.63
2023-11-22T11:56:09.953Z,15.47
2023-11-22T11:58:40.330Z,15.63
2023-11-22T12:01:09.109Z,16.07
2023-11-22T12:03:40.121Z,16.03
2023-11-22T12:06:09.848Z,15.17
2023-11-22T12:08:38.575Z,15.00
2023-11-22T12:11:09.522Z,15.93
2023-11-22T12:13:40.440Z,14.60
2023-11-22T12:16:12.374Z,15.20
2023-11-22T12:18:44.634Z,15.13
2023-11-22T12:21:15.699Z,15.60
2023-11-22T12:23:45.509Z,15.77
2023-11-22T12:26:19.440Z,16.50
2023-11-22T12:28:57.951Z,15.90
2023-11-22T12:31:37.158Z,15.17
2023-11-22T12:34:09.257Z,14.60
2023-11-22T12:36:38.852Z,14.57
2023-11-22T12:39:15.943Z,14.03
2023-11-22T12:41:53.347Z,14.57
2023-11-22T12:44:31.082Z,13.90
2023-11-22T12:47:05.926Z,14.97
2023-11-22T12:49:34.405Z,15.10
2023-11-22T12:52:02.970Z,15.57
2023-11-22T12:54:33.475Z,16.13
2023-11-22T12:57:02.300Z,14.83
2023-11-22T12:59:33.416Z,15.47
2023-11-22T13:02:02.426Z,15.53
2023-11-22T13:04:32.777Z,14.57
2023-11-22T13:07:02.011Z,15.60
2023-11-22T13:09:33.501Z,16.47
2023-11-22T13:12:02.310Z,15.57
2023-11-22T13:14:38.743Z,14.97
2023-11-22T13:17:08.563Z,14.70
2023-11-22T13:19:41.410Z,15.37
2023-11-22T13:22:09.790Z,15.87
2023-11-22T13:24:38.955Z,15.80
2023-11-22T13:27:07.442Z,15.43
2023-11-22T13:29:38.661Z,15.90
2023-11-22T13:32:09.401Z,14.57
2023-11-22T13:34:37.647Z,15.13
2023-11-22T13:37:06.396Z,14.40
2023-11-22T13:39:35.427Z,14.20
2023-11-22T13:42:04.068Z,14.17
2023-11-22T13:44:32.861Z,13.80
2023-11-22T13:47:05.491Z,13.77
2023-11-22T13:49:33.735Z,12.40
2023-11-22T13:52:03.310Z,12.53
2023-11-22T13:54:33.497Z,12.20
2023-11-22T13:57:01.716Z,12.23
2023-11-22T13:59:30.258Z,11.97
2023-11-22T14:01:59.093Z,13.03
2023-11-22T14:04:29.295Z,11.30
2023-11-22T14:07:00.276Z,13.07
2023-11-22T14:09:29.777Z,16.67
2023-11-22T14:11:59.599Z,11.23
2023-11-22T14:14:27.810Z,11.07
2023-11-22T14:16:56.533Z,11.67
2023-11-22T14:19:25.814Z,12.00
2023-11-22T14:21:55.663Z,11.47
2023-11-22T14:24:24.000Z,11.47
2023-11-22T14:26:53.105Z,10.83
2023-11-22T14:29:21.585Z,10.90
2023-11-22T14:31:49.864Z,10.80
2023-11-22T14:34:18.480Z,11.63
2023-11-22T14:36:47.420Z,13.63
2023-11-22T14:39:19.485Z,10.43
2023-11-22T14:41:47.960Z,11.17
2023-11-22T14:44:16.636Z,10.20
2023-11-22T14:46:45.246Z,10.97
2023-11-22T14:49:15.536Z,11.93
2023-11-22T14:51:44.643Z,15.83
2023-11-22T14:54:13.408Z,17.73
2023-11-22T14:56:43.154Z,14.93
2023-11-22T14:59:12.212Z,12.00
2023-11-22T15:01:41.738Z,11.80
2023-11-22T15:04:12.355Z,11.83
2023-11-22T15:06:41.003Z,11.73
2023-11-22T15:09:11.456Z,11.73
2023-11-22T15:11:42.640Z,12.40
2023-11-22T15:14:12.798Z,11.60
2023-11-22T15:16:41.472Z,11.77
2023-11-22T15:19:11.187Z,12.07
2023-11-22T15:21:39.740Z,11.93
2023-11-22T15:24:09.729Z,11.20
2023-11-22T15:26:38.603Z,11.23
2023-11-22T15:29:07.950Z,11.17
2023-11-22T15:31:38.115Z,11.47
2023-11-22T15:34:08.344Z,11.03
2023-11-22T15:36:37.251Z,11.70
2023-11-22T15:39:07.144Z,11.70
2023-11-22T15:41:35.495Z,11.60
2023-11-22T15:44:05.166Z,11.40
2023-11-22T15:46:34.432Z,12.80
2023-11-22T15:49:05.259Z,11.87
2023-11-22T15:51:33.923Z,12.37
2023-11-22T15:54:02.689Z,11.60
2023-11-22T15:56:32.423Z,12.17
2023-11-22T15:59:04.518Z,11.83
2023-11-22T16:01:32.815Z,12.20
2023-11-22T16:04:01.669Z,12.37
2023-11-22T16:06:31.886Z,12.17
2023-11-22T16:09:01.686Z,12.73
2023-11-22T16:11:29.986Z,13.23
2023-11-22T16:13:59.079Z,12.37
2023-11-22T16:16:29.270Z,13.37
2023-11-22T16:18:57.924Z,14.37
2023-11-22T16:21:27.640Z,14.33
2023-11-22T16:23:57.806Z,13.40
2023-11-22T16:26:28.478Z,13.70
2023-11-22T16:28:57.956Z,13.80
2023-11-22T16:31:27.388Z,13.37
2023-11-22T16:33:56.100Z,13.67
2023-11-22T16:36:25.434Z,13.23
2023-11-22T16:38:56.084Z,15.00
2023-11-22T16:41:27.167Z,14.10
2023-11-22T16:43:55.868Z,12.83
2023-11-22T16:46:24.535Z,14.23
2023-11-22T16:48:55.571Z,13.80
2023-11-22T16:51:24.386Z,14.30
2023-11-22T16:53:52.888Z,15.37
2023-11-22T16:56:21.718Z,14.57
2023-11-22T16:58:51.431Z,14.47
2023-11-22T17:01:19.934Z,13.97
2023-11-22T17:03:51.150Z,13.40
2023-11-22T17:06:19.417Z,17.70
2023-11-22T17:08:48.098Z,16.17
2023-11-22T17:11:17.161Z,18.70
2023-11-22T17:13:45.424Z,20.80
2023-11-22T17:16:15.150Z,15.87
2023-11-22T17:18:43.490Z,15.03
2023-11-22T17:21:15.966Z,15.33
2023-11-22T17:23:45.916Z,16.10
2023-11-22T17:26:14.824Z,13.83
2023-11-22T17:28:43.475Z,13.90
2023-11-22T17:31:12.171Z,14.63
2023-11-22T17:33:43.160Z,14.63
2023-11-22T17:36:11.913Z,14.43
2023-11-22T17:38:40.293Z,14.10
2023-11-22T17:41:09.673Z,14.00
2023-11-22T17:43:37.946Z,14.33
2023-11-22T17:46:08.517Z,14.57
2023-11-22T17:48:38.544Z,14.20
2023-11-22T17:51:09.456Z,13.87
2023-11-22T17:53:38.198Z,15.07
2023-11-22T17:56:08.657Z,16.17
2023-11-22T17:58:37.448Z,14.97
2023-11-22T18:01:05.926Z,15.07
2023-11-22T18:03:36.251Z,15.43
2023-11-22T18:06:05.141Z,15.90
2023-11-22T18:08:35.087Z,15.33
2023-11-22T18:11:03.578Z,16.93
2023-11-22T18:13:31.982Z,16.63
2023-11-22T18:16:00.436Z,20.93
2023-11-22T18:18:28.946Z,17.43
2023-11-22T18:20:57.660Z,19.27
2023-11-22T18:23:27.728Z,18.73
2023-11-22T18:25:57.727Z,20.73
2023-11-22T18:28:26.339Z,18.80
2023-11-22T18:30:55.400Z,19.77
2023-11-22T18:33:23.787Z,19.93
2023-11-22T18:35:52.429Z,21.70
2023-11-22T18:38:22.997Z,20.53
2023-11-22T18:40:51.729Z,24.80
2023-11-22T18:43:21.649Z,21.57
2023-11-22T18:45:49.970Z,23.10
2023-11-22T18:48:18.531Z,21.23
2023-11-22T18:50:47.518Z,22.33
2023-11-22T18:53:16.460Z,22.63
2023-11-22T18:55:44.898Z,22.27
2023-11-22T18:58:13.456Z,21.50
2023-11-22T19:00:44.602Z,25.27
2023-11-22T19:03:17.068Z,22.13
2023-11-22T19:05:45.674Z,23.27
2023-11-22T19:08:14.939Z,21.23
2023-11-22T19:10:43.448Z,23.33
2023-11-22T19:13:11.992Z,21.93
2023-11-22T19:15:47.263Z,23.13
2023-11-22T19:18:15.987Z,26.30
2023-11-22T19:20:46.546Z,23.87
2023-11-22T19:23:15.230Z,23.53
2023-11-22T19:25:44.167Z,21.37
2023-11-22T19:28:14.452Z,22.33
2023-11-22T19:30:44.475Z,21.30
2023-11-22T19:33:14.651Z,22.40
2023-11-22T19:35:43.814Z,21.33
2023-11-22T19:38:13.002Z,27.30
2023-11-22T19:40:43.458Z,21.80
2023-11-22T19:43:14.337Z,21.40
2023-11-22T19:45:45.022Z,21.00
2023-11-22T19:48:13.415Z,20.47
2023-11-22T19:50:42.329Z,19.10
2023-11-22T19:53:11.215Z,20.07
2023-11-22T19:55:39.480Z,19.40
2023-11-22T19:58:09.299Z,20.10
2023-11-22T20:00:37.961Z,19.90
2023-11-22T20:03:07.817Z,20.63
2023-11-22T20:05:36.750Z,22.97
2023-11-22T20:08:05.975Z,20.40
2023-11-22T20:10:34.595Z,20.73
2023-11-22T20:13:03.011Z,19.33
2023-11-22T20:15:31.754Z,19.83
2023-11-22T20:18:00.816Z,20.37
2023-11-22T20:20:30.592Z,19.23
2023-11-22T20:22:59.237Z,18.10
2023-11-22T20:25:30.734Z,19.87
2023-11-22T20:27:59.405Z,18.90
2023-11-22T20:30:28.055Z,18.30
2023-11-22T20:32:57.085Z,19.13
2023-11-22T20:35:25.782Z,18.57
2023-11-22T20:37:56.190Z,19.13
2023-11-22T20:40:24.540Z,18.50
2023-11-22T20:42:53.728Z,17.43
2023-11-22T20:45:23.400Z,17.80
2023-11-22T20:47:52.419Z,20.10
2023-11-22T20:50:21.054Z,19.53
2023-11-22T20:52:53.632Z,17.53
2023-11-22T20:55:23.982Z,18.33
2023-11-22T20:57:53.474Z,18.20
2023-11-22T21:00:22.427Z,19.70
2023-11-22T21:02:50.971Z,17.93
2023-11-22T21:05:19.324Z,18.97
2023-11-22T21:07:47.768Z,15.73
2023-11-22T21:10:16.143Z,16.00
2023-11-22T21:12:46.292Z,18.13
2023-11-22T21:15:15.363Z,16.63
2023-11-22T21:17:44.310Z,16.93
2023-11-22T21:20:14.452Z,16.93
2023-11-22T21:22:44.335Z,16.87
2023-11-22T21:25:13.353Z,16.67
2023-11-22T21:27:44.562Z,17.30
2023-11-22T21:30:15.272Z,18.90
2023-11-22T21:32:44.329Z,15.77
2023-11-22T21:35:14.128Z,16.80
2023-11-22T21:37:42.595Z,16.33
2023-11-22T21:40:14.336Z,16.37
2023-11-22T21:42:43.711Z,18.30
2023-11-22T21:45:16.721Z,19.80
2023-11-22T21:47:45.813Z,16.47
2023-11-22T21:50:15.280Z,19.63
2023-11-22T21:52:45.174Z,20.53
2023-11-22T21:55:14.502Z,19.37
2023-11-22T21:57:45.264Z,19.23
2023-11-22T22:00:18.532Z,17.63
2023-11-22T22:02:47.446Z,19.80
2023-11-22T22:05:16.393Z,18.13
2023-11-22T22:07:45.162Z,19.30
2023-11-22T22:10:14.198Z,20.00
2023-11-22T22:12:42.704Z,18.83
2023-11-22T22:15:12.209Z,17.50
2023-11-22T22:17:42.437Z,16.07
2023-11-22T22:20:12.098Z,16.97
2023-11-22T22:22:40.583Z,16.13
2023-11-22T22:25:10.702Z,15.73
2023-11-22T22:27:39.306Z,14.97
2023-11-22T22:30:09.862Z,16.47
2023-11-22T22:32:38.534Z,18.03
2023-11-22T22:35:10.493Z,15.40
2023-11-22T22:37:38.911Z,14.43
2023-11-22T22:40:09.001Z,14.47
2023-11-22T22:42:37.919Z,17.33
2023-11-22T22:45:07.890Z,14.63
2023-11-22T22:47:36.783Z,14.87
2023-11-22T22:50:08.457Z,16.43
2023-11-22T22:52:37.210Z,15.17
2023-11-22T22:55:07.610Z,18.13
2023-11-22T22:57:36.354Z,14.67
2023-11-22T23:00:08.714Z,16.00
2023-11-22T23:02:37.490Z,14.73
2023-11-22T23:05:18.148Z,15.03
2023-11-22T23:07:50.288Z,13.77
2023-11-22T23:10:18.637Z,16.23
2023-11-22T23:12:47.000Z,14.67
2023-11-22T23:15:15.510Z,15.17
2023-11-22T23:17:44.098Z,15.07
2023-11-22T23:20:17.132Z,14.63
2023-11-22T23:22:46.513Z,14.30
2023-11-22T23:25:15.513Z,15.47
2023-11-22T23:27:45.782Z,14.43
2023-11-22T23:30:16.300Z,15.03
2023-11-22T23:32:45.690Z,12.87
2023-11-22T23:35:18.374Z,14.77
2023-11-22T23:37:48.102Z,14.27
2023-11-22T23:40:21.605Z,12.13
2023-11-22T23:42:50.997Z,13.70
2023-11-22T23:45:22.451Z,13.57
2023-11-22T23:47:52.527Z,12.47
2023-11-22T23:50:22.487Z,13.73
2023-11-22T23:52:52.454Z,14.07
2023-11-22T23:55:21.773Z,14.10
2023-11-22T23:57:50.256Z,14.10
